^^
Station Historical Data
Daily Summary for June 4, 2017 Units:  English    Metric   Both
« Previous Day
Next Day »
Daily Weekly Monthly Yearly Custom
  High: Low: Average:
Temperature: 65.7 °F 47.2 °F 57.9 °F
Dew Point: 57.6 °F 44.2 °F 51.7 °F
Humidity: 92 % 59 % 80 %
Wind Speed: 2.4 mph 0.0 mph 0 mph
Wind Gust: 10.4 mph - -
Wind:- - SSE
Pressure: 30.06 in 29.83 in -
Precipitation: 0.01 in    
Historical Graphs
 
 
Tabular Data for June 4, 2017
Time Temperature Dew Point Pressure Wind Wind Speed Wind Gust Humidity Rainfall Rate (Hourly) solar Conditions
00:03 55.7 °F 48.2 °F 30.02 in Calm     76 % 0.00 in 0.0 W/m2 RA
00:08 55.5 °F 48.1 °F 30.03 in Calm     76 % 0.00 in 0.0 W/m2 RA
00:13 54.9 °F 47.5 °F 30.03 in Calm     76 % 0.00 in 0.0 W/m2 CLR
00:18 54.5 °F 47.4 °F 30.03 in Calm     77 % 0.00 in 0.0 W/m2 CLR
00:23 54.2 °F 47.8 °F 30.03 in Calm     79 % 0.00 in 0.0 W/m2 CLR
00:29 54.1 °F 47.7 °F 30.03 in Calm     79 % 0.00 in 0.0 W/m2 CLR
00:34 54.3 °F 48.3 °F 30.03 in Calm     80 % 0.00 in 0.0 W/m2 CLR
00:39 54.1 °F 48.1 °F 30.03 in Calm     80 % 0.00 in 0.0 W/m2 CLR
00:44 53.8 °F 47.8 °F 30.04 in Calm     80 % 0.00 in 0.0 W/m2 CLR
00:49 53.7 °F 47.7 °F 30.04 in Calm     80 % 0.00 in 0.0 W/m2 CLR
00:54 53.7 °F 47.7 °F 30.04 in Calm     80 % 0.00 in 0.0 W/m2 CLR
00:59 53.8 °F 47.8 °F 30.04 in Calm     80 % 0.00 in 0.0 W/m2 CLR
01:04 53.5 °F 47.1 °F 30.03 in Calm     79 % 0.00 in 0.0 W/m2 CLR
01:09 53.6 °F 46.6 °F 30.04 in Calm     77 % 0.00 in 0.0 W/m2 CLR
01:14 53.8 °F 46.8 °F 30.04 in Calm     77 % 0.00 in 0.0 W/m2 CLR
01:19 53.3 °F 47.0 °F 30.04 in Calm     79 % 0.00 in 0.0 W/m2 CLR
01:24 52.8 °F 46.8 °F 30.04 in Calm     80 % 0.00 in 0.0 W/m2 CLR
01:29 52.4 °F 46.7 °F 30.04 in Calm     81 % 0.00 in 0.0 W/m2 CLR
01:34 52.5 °F 46.8 °F 30.04 in Calm     81 % 0.00 in 0.0 W/m2 CLR
01:39 52.3 °F 46.6 °F 30.05 in Calm     81 % 0.00 in 0.0 W/m2 CLR
01:44 51.9 °F 46.3 °F 30.05 in Calm     81 % 0.00 in 0.0 W/m2 CLR
01:49 51.9 °F 46.3 °F 30.05 in Calm     81 % 0.00 in 0.0 W/m2 CLR
01:54 51.9 °F 46.6 °F 30.05 in Calm     82 % 0.00 in 0.0 W/m2 CLR
01:59 51.8 °F 46.5 °F 30.05 in Calm     82 % 0.00 in 0.0 W/m2 CLR
02:04 51.7 °F 46.1 °F 30.05 in Calm     81 % 0.00 in 0.0 W/m2 CLR
02:09 51.5 °F 46.2 °F 30.05 in Calm     82 % 0.00 in 0.0 W/m2 CLR
02:11 51.4 °F 46.1 °F 30.05 in Calm     82 % 0.00 in 0.0 W/m2 CLR
02:16 51.3 °F 46.0 °F 30.05 in Calm     82 % 0.00 in 0.0 W/m2 CLR
02:21 51.4 °F 46.4 °F 30.05 in Calm     83 % 0.00 in 0.0 W/m2 CLR
02:26 51.3 °F 46.3 °F 30.05 in Calm     83 % 0.00 in 0.0 W/m2 CLR
02:31 51.0 °F 46.0 °F 30.05 in Calm     83 % 0.00 in 0.0 W/m2 CLR
02:36 50.9 °F 46.2 °F 30.06 in Calm     84 % 0.00 in 0.0 W/m2 CLR
02:41 50.8 °F 46.1 °F 30.05 in Calm     84 % 0.00 in 0.0 W/m2 CLR
02:46 50.7 °F 46.0 °F 30.06 in Calm     84 % 0.00 in 0.0 W/m2 CLR
02:51 50.6 °F 45.9 °F 30.05 in Calm     84 % 0.00 in 0.0 W/m2 CLR
02:52 50.6 °F 45.9 °F 30.05 in Calm     84 % 0.00 in 0.0 W/m2 CLR
02:58 50.4 °F 45.7 °F 30.06 in Calm     84 % 0.00 in 0.0 W/m2 CLR
03:03 50.1 °F 45.8 °F 30.05 in Calm     85 % 0.00 in 0.0 W/m2 CLR
03:08 49.9 °F 45.6 °F 30.05 in Calm     85 % 0.00 in 0.0 W/m2 CLR
03:13 49.9 °F 45.9 °F 30.05 in Calm     86 % 0.00 in 0.0 W/m2 CLR
03:18 49.9 °F 45.6 °F 30.05 in Calm     85 % 0.00 in 0.0 W/m2 CLR
03:23 49.7 °F 45.7 °F 30.05 in Calm     86 % 0.00 in 0.0 W/m2 CLR
03:28 49.6 °F 45.6 °F 30.05 in Calm     86 % 0.00 in 0.0 W/m2 CLR
03:33 49.7 °F 45.7 °F 30.05 in Calm     86 % 0.00 in 0.0 W/m2 CLR
03:38 49.4 °F 45.4 °F 30.05 in Calm     86 % 0.00 in 0.0 W/m2 CLR
03:43 49.3 °F 45.3 °F 30.04 in Calm     86 % 0.00 in 0.0 W/m2 CLR
03:48 49.3 °F 45.3 °F 30.04 in Calm     86 % 0.00 in 0.0 W/m2 CLR
03:53 49.4 °F 45.7 °F 30.04 in Calm     87 % 0.00 in 0.0 W/m2 CLR
03:58 49.3 °F 45.3 °F 30.04 in Calm     86 % 0.00 in 0.0 W/m2 CLR
04:03 49.2 °F 45.2 °F 30.04 in Calm     86 % 0.00 in 0.0 W/m2 CLR
04:08 49.1 °F 45.1 °F 30.04 in Calm     86 % 0.00 in 0.0 W/m2 CLR
04:13 48.9 °F 45.2 °F 30.04 in Calm     87 % 0.00 in 0.0 W/m2 CLR
04:18 48.9 °F 45.2 °F 30.04 in Calm     87 % 0.00 in 0.0 W/m2 CLR
04:23 48.8 °F 45.1 °F 30.03 in Calm     87 % 0.00 in 0.0 W/m2 CLR
04:28 48.6 °F 44.9 °F 30.03 in Calm     87 % 0.00 in 0.0 W/m2 CLR
04:33 48.4 °F 44.7 °F 30.03 in Calm     87 % 0.00 in 0.0 W/m2 CLR
04:38 48.4 °F 44.7 °F 30.03 in Calm     87 % 0.00 in 0.0 W/m2 CLR
04:43 48.2 °F 44.5 °F 30.03 in Calm     87 % 0.00 in 0.0 W/m2 CLR
04:48 47.9 °F 44.5 °F 30.03 in Calm     88 % 0.00 in 0.0 W/m2 CLR
04:53 47.9 °F 44.5 °F 30.03 in Calm     88 % 0.00 in 0.0 W/m2 CLR
04:58 47.9 °F 44.5 °F 30.03 in Calm     88 % 0.00 in 0.0 W/m2 CLR
05:03 47.9 °F 44.8 °F 30.02 in Calm     89 % 0.00 in 0.0 W/m2 CLR
05:08 47.9 °F 44.8 °F 30.02 in Calm     89 % 0.00 in 0.0 W/m2 CLR
05:14 48.0 °F 44.9 °F 30.02 in Calm     89 % 0.00 in 0.0 W/m2 CLR
05:19 47.8 °F 44.4 °F 30.03 in Calm     88 % 0.00 in 0.0 W/m2 CLR
05:24 47.7 °F 44.6 °F 30.03 in Calm     89 % 0.00 in 0.0 W/m2 CLR
05:29 47.6 °F 44.5 °F 30.03 in Calm     89 % 0.00 in 0.0 W/m2 CLR
05:34 47.4 °F 44.3 °F 30.02 in Calm     89 % 0.00 in 0.0 W/m2 CLR
05:39 47.5 °F 44.4 °F 30.02 in Calm     89 % 0.00 in 0.0 W/m2 CLR
05:44 47.4 °F 44.3 °F 30.02 in Calm     89 % 0.00 in 5.0 W/m2 CLR
05:49 47.5 °F 44.4 °F 30.02 in Calm     89 % 0.00 in 7.0 W/m2 CLR
05:54 47.3 °F 44.2 °F 30.02 in Calm     89 % 0.00 in 9.0 W/m2 CLR
05:59 47.2 °F 44.4 °F 30.02 in Calm     90 % 0.00 in 11.0 W/m2 CLR
06:04 47.3 °F 44.5 °F 30.02 in Calm     90 % 0.00 in 12.0 W/m2 CLR
06:09 47.3 °F 44.5 °F 30.02 in Calm     90 % 0.00 in 16.0 W/m2 CLR
06:14 47.4 °F 44.6 °F 30.03 in Calm     90 % 0.00 in 19.0 W/m2 CLR
06:19 47.6 °F 44.8 °F 30.03 in Calm     90 % 0.00 in 19.0 W/m2 CLR
06:24 48.0 °F 45.2 °F 30.03 in Calm     90 % 0.00 in 19.0 W/m2 CLR
06:29 48.5 °F 45.7 °F 30.03 in Calm     90 % 0.00 in 23.0 W/m2 CLR
06:34 49.0 °F 46.2 °F 30.03 in Calm     90 % 0.00 in 23.0 W/m2 CLR
06:39 49.5 °F 46.4 °F 30.03 in Calm     89 % 0.00 in 25.0 W/m2 CLR
06:44 50.0 °F 46.6 °F 30.03 in Calm     88 % 0.00 in 37.0 W/m2 CLR
06:49 50.5 °F 46.8 °F 30.02 in Calm     87 % 0.00 in 58.0 W/m2 CLR
06:54 51.3 °F 47.3 °F 30.02 in Calm     86 % 0.00 in 58.0 W/m2 CLR
06:59 52.2 °F 47.5 °F 30.02 in Calm     84 % 0.00 in 81.0 W/m2 CLR
07:04 52.9 °F 48.2 °F 30.02 in Calm     84 % 0.00 in 74.0 W/m2 CLR
07:09 53.2 °F 47.8 °F 30.02 in Calm     82 % 0.00 in 84.0 W/m2 CLR
07:14 53.8 °F 48.4 °F 30.02 in Calm     82 % 0.00 in 104.0 W/m2 CLR
07:19 54.3 °F 47.9 °F 30.02 in Calm     79 % 0.00 in 127.0 W/m2 CLR
07:24 55.1 °F 48.7 °F 30.02 in Calm     79 % 0.00 in 146.0 W/m2 CLR
07:29 55.2 °F 47.8 °F 30.02 in Calm     76 % 0.00 in 137.0 W/m2 CLR
07:34 55.6 °F 48.2 °F 30.02 in Calm     76 % 0.00 in 135.0 W/m2 CLR
07:39 55.8 °F 48.3 °F 30.02 in Calm     76 % 0.00 in 151.0 W/m2 CLR
07:44 55.9 °F 48.1 °F 30.02 in Calm     75 % 0.00 in 163.0 W/m2 CLR
07:49 56.3 °F 48.1 °F 30.02 in Calm     74 % 0.00 in 167.0 W/m2 CLR
07:54 56.7 °F 48.5 °F 30.02 in Calm     74 % 0.00 in 153.0 W/m2 CLR
07:59 56.6 °F 48.4 °F 30.02 in Calm     74 % 0.00 in 120.0 W/m2 CLR
08:04 56.7 °F 48.1 °F 30.03 in Calm     73 % 0.00 in 107.0 W/m2 CLR
08:09 56.8 °F 48.2 °F 30.03 in Calm     73 % 0.00 in 90.0 W/m2 CLR
08:14 56.7 °F 48.1 °F 30.03 in Calm     73 % 0.00 in 76.0 W/m2 CLR
08:19 56.4 °F 47.5 °F 30.03 in Calm     72 % 0.00 in 69.0 W/m2 CLR
08:24 56.5 °F 47.6 °F 30.03 in Calm     72 % 0.00 in 76.0 W/m2 CLR
08:29 56.6 °F 48.0 °F 30.03 in Calm     73 % 0.00 in 125.0 W/m2 CLR
08:35 57.1 °F 48.5 °F 30.03 in Calm     73 % 0.00 in 192.0 W/m2 CLR
08:40 57.5 °F 48.9 °F 30.03 in Calm     73 % 0.00 in 179.0 W/m2 CLR
08:45 57.6 °F 48.3 °F 30.03 in Calm     71 % 0.00 in 156.0 W/m2 CLR
08:50 57.9 °F 48.6 °F 30.03 in Calm     71 % 0.00 in 158.0 W/m2 CLR
08:53 57.9 °F 48.6 °F 30.03 in Calm     71 % 0.00 in 171.0 W/m2 CLR
08:58 58.1 °F 48.7 °F 30.03 in Calm     71 % 0.00 in 160.0 W/m2 CLR
09:03 58.2 °F 48.8 °F 30.03 in Calm     71 % 0.00 in 128.0 W/m2 OVC
09:08 58.0 °F 48.3 °F 30.03 in Calm     70 % 0.00 in 121.0 W/m2 OVC
09:13 58.1 °F 48.7 °F 30.03 in Calm     71 % 0.00 in 141.0 W/m2 OVC
09:18 58.3 °F 48.9 °F 30.03 in Calm     71 % 0.00 in 151.0 W/m2 OVC
09:23 58.5 °F 49.1 °F 30.02 in Calm     71 % 0.00 in 169.0 W/m2 OVC
09:28 58.6 °F 49.2 °F 30.02 in Calm     71 % 0.00 in 179.0 W/m2 OVC
09:33 58.8 °F 49.4 °F 30.02 in Calm     71 % 0.00 in 195.0 W/m2 OVC
09:43 59.4 °F 50.7 °F 30.02 in Calm     73 % 0.00 in 232.0 W/m2 OVC
09:48 59.4 °F 50.4 °F 30.02 in Calm     72 % 0.00 in 596.0 W/m2 OVC
09:53 60.2 °F 50.8 °F 30.01 in Calm   3.5 mph 71 % 0.00 in 468.0 W/m2 OVC
09:58 60.7 °F 51.2 °F 30.01 in Calm   3.5 mph 71 % 0.00 in 596.0 W/m2 OVC
10:03 61.5 °F 51.6 °F 30.01 in Calm   2.3 mph 70 % 0.00 in 809.0 W/m2 BKN
10:08 62.7 °F 52.0 °F 30.00 in Calm   2.3 mph 68 % 0.00 in 851.0 W/m2 BKN
10:13 63.4 °F 51.8 °F 30.00 in Calm     66 % 0.00 in 960.0 W/m2 BKN
10:18 63.7 °F 51.7 °F 30.00 in Calm     65 % 0.00 in 281.0 W/m2 BKN
10:23 63.4 °F 51.4 °F 30.00 in Calm     65 % 0.00 in 190.0 W/m2 BKN
10:28 63.6 °F 51.6 °F 30.00 in Calm     65 % 0.00 in 193.0 W/m2 BKN
10:38 63.4 °F 51.0 °F 30.00 in Calm     64 % 0.00 in 183.0 W/m2 BKN
10:43 63.6 °F 51.2 °F 30.00 in Calm     64 % 0.00 in 188.0 W/m2 BKN
10:48 63.8 °F 51.4 °F 30.00 in Calm     64 % 0.00 in 193.0 W/m2 BKN
10:53 63.9 °F 51.9 °F 29.99 in Calm     65 % 0.00 in 155.0 W/m2 BKN
10:58 63.9 °F 51.9 °F 29.99 in Calm     65 % 0.00 in 155.0 W/m2 BKN
11:03 63.9 °F 51.9 °F 29.99 in Calm   1.2 mph 65 % 0.00 in 135.0 W/m2 OVC
11:08 63.7 °F 51.7 °F 29.99 in Calm   1.2 mph 65 % 0.00 in 109.0 W/m2 OVC
11:13 63.6 °F 52.0 °F 29.99 in Calm     66 % 0.00 in 111.0 W/m2 OVC
11:18 63.5 °F 51.9 °F 29.99 in Calm     66 % 0.00 in 130.0 W/m2 OVC
11:21 63.5 °F 51.9 °F 29.98 in Calm     66 % 0.00 in 167.0 W/m2 OVC
11:26 63.8 °F 52.6 °F 29.98 in Calm     67 % 0.00 in 183.0 W/m2 OVC
11:31 64.2 °F 52.6 °F 29.98 in Calm     66 % 0.00 in 193.0 W/m2 OVC
11:36 64.8 °F 52.3 °F 29.97 in Calm     64 % 0.00 in 230.0 W/m2 OVC
11:41 65.3 °F 51.1 °F 29.98 in Calm   5.8 mph 60 % 0.00 in 176.0 W/m2 OVC
11:46 65.6 °F 51.3 °F 29.98 in Calm   5.8 mph 60 % 0.00 in 178.0 W/m2 OVC
11:51 65.7 °F 51.0 °F 29.98 in Calm   3.5 mph 59 % 0.00 in 151.0 W/m2 OVC
11:56 65.7 °F 51.4 °F 29.98 in Calm   3.5 mph 60 % 0.00 in 165.0 W/m2 OVC
12:01 65.7 °F 51.9 °F 29.98 in Calm     61 % 0.00 in 137.0 W/m2 OVC
12:06 65.5 °F 52.1 °F 29.98 in Calm     62 % 0.00 in 132.0 W/m2 OVC
12:11 65.5 °F 53.0 °F 29.98 in Calm     64 % 0.00 in 135.0 W/m2 OVC
12:16 65.4 °F 52.5 °F 29.98 in Calm     63 % 0.00 in 111.0 W/m2 OVC
12:21 65.5 °F 53.0 °F 29.98 in Calm     64 % 0.00 in 86.0 W/m2 OVC
12:26 65.1 °F 52.6 °F 29.97 in Calm     64 % 0.00 in 83.0 W/m2 OVC
12:31 64.9 °F 53.7 °F 29.97 in Calm     67 % 0.00 in 83.0 W/m2 OVC
12:36 64.7 °F 53.5 °F 29.97 in Calm     67 % 0.00 in 104.0 W/m2 OVC
12:41 64.1 °F 53.7 °F 29.96 in Calm     69 % 0.00 in 116.0 W/m2 OVC
12:46 63.7 °F 53.3 °F 29.96 in Calm   1.2 mph 69 % 0.00 in 134.0 W/m2 OVC
12:51 63.4 °F 53.4 °F 29.96 in Calm   1.2 mph 70 % 0.00 in 107.0 W/m2 OVC
12:56 63.3 °F 53.3 °F 29.96 in Calm     70 % 0.00 in 121.0 W/m2 OVC
13:01 63.2 °F 53.3 °F 29.97 in Calm     70 % 0.00 in 113.0 W/m2 -RA
13:06 63.1 °F 53.2 °F 29.96 in Calm   1.2 mph 70 % 0.00 in 160.0 W/m2 -RA
13:11 63.2 °F 53.3 °F 29.96 in Calm   2.3 mph 70 % 0.00 in 155.0 W/m2 -RA
13:16 63.3 °F 53.3 °F 29.96 in NW 0.1 mph 2.3 mph 70 % 0.00 in 128.0 W/m2 -RA
13:21 63.3 °F 53.3 °F 29.96 in Calm   1.2 mph 70 % 0.00 in 120.0 W/m2 -RA
13:26 63.4 °F 53.4 °F 29.96 in Calm   1.2 mph 70 % 0.00 in 107.0 W/m2 -RA
13:31 63.2 °F 53.3 °F 29.96 in North 0.3 mph 3.5 mph 70 % 0.00 in 105.0 W/m2 -RA
13:36 63.1 °F 53.2 °F 29.96 in NNE 0.1 mph 3.5 mph 70 % 0.00 in 111.0 W/m2 -RA
13:40 63.1 °F 53.5 °F 29.96 in NNW 0.4 mph 3.5 mph 71 % 0.00 in 114.0 W/m2 -RA
13:45 63.0 °F 53.1 °F 29.96 in NNW 0.4 mph 3.5 mph 70 % 0.00 in 118.0 W/m2 -RA
13:50 63.0 °F 53.1 °F 29.96 in North 0.1 mph 3.5 mph 70 % 0.00 in 130.0 W/m2 -RA
13:55 63.0 °F 53.1 °F 29.96 in Calm   2.3 mph 70 % 0.00 in 137.0 W/m2 -RA
14:00 63.1 °F 53.2 °F 29.95 in Calm   3.5 mph 70 % 0.00 in 137.0 W/m2 -RA
14:05 63.1 °F 53.2 °F 29.95 in Calm   3.5 mph 70 % 0.00 in 125.0 W/m2 OVC
14:10 63.0 °F 53.1 °F 29.95 in North 0.1 mph 3.5 mph 70 % 0.00 in 160.0 W/m2 OVC
14:16 63.0 °F 53.1 °F 29.95 in NNE 0.1 mph 2.3 mph 70 % 0.00 in 165.0 W/m2 OVC
14:21 63.2 °F 53.6 °F 29.95 in Calm   4.6 mph 71 % 0.00 in 172.0 W/m2 OVC
14:26 63.3 °F 54.1 °F 29.95 in Calm   4.6 mph 72 % 0.00 in 141.0 W/m2 OVC
14:31 62.9 °F 53.7 °F 29.95 in NNE 0.2 mph 3.5 mph 72 % 0.00 in 135.0 W/m2 OVC
14:36 62.9 °F 53.7 °F 29.95 in Calm   3.5 mph 72 % 0.00 in 139.0 W/m2 OVC
14:41 62.9 °F 54.1 °F 29.95 in Calm   3.5 mph 73 % 0.00 in 165.0 W/m2 OVC
14:46 62.9 °F 54.5 °F 29.94 in Calm   1.2 mph 74 % 0.00 in 197.0 W/m2 OVC
14:51 63.0 °F 54.6 °F 29.94 in NNE 0.2 mph 2.3 mph 74 % 0.00 in 174.0 W/m2 OVC
14:56 63.0 °F 54.6 °F 29.94 in Calm   2.3 mph 74 % 0.00 in 142.0 W/m2 OVC
15:01 62.9 °F 54.5 °F 29.94 in Calm   2.3 mph 74 % 0.00 in 192.0 W/m2 -RA
15:06 62.9 °F 54.9 °F 29.94 in Calm   1.2 mph 75 % 0.00 in 188.0 W/m2 -RA
15:11 63.0 °F 54.9 °F 29.94 in Calm   1.2 mph 75 % 0.00 in 172.0 W/m2 -RA
15:16 62.7 °F 54.7 °F 29.94 in NNE 0.6 mph 2.3 mph 75 % 0.00 in 135.0 W/m2 -RA
15:21 62.7 °F 54.7 °F 29.94 in Calm   2.3 mph 75 % 0.00 in 127.0 W/m2 -RA
15:26 62.7 °F 55.0 °F 29.94 in Calm   2.3 mph 76 % 0.00 in 104.0 W/m2 -RA
15:31 62.5 °F 54.8 °F 29.94 in Calm   1.2 mph 76 % 0.00 in 107.0 W/m2 -RA
15:36 62.5 °F 54.8 °F 29.93 in Calm   1.2 mph 76 % 0.00 in 118.0 W/m2 -RA
15:41 62.5 °F 55.2 °F 29.93 in Calm   1.2 mph 77 % 0.00 in 113.0 W/m2 -RA
15:46 62.3 °F 55.4 °F 29.93 in Calm   1.2 mph 78 % 0.00 in 162.0 W/m2 -RA
15:51 62.4 °F 55.8 °F 29.93 in Calm     79 % 0.00 in 128.0 W/m2 -RA
15:56 62.3 °F 56.0 °F 29.92 in Calm   1.2 mph 80 % 0.00 in 134.0 W/m2 -RA
16:01 62.1 °F 55.9 °F 29.92 in Calm   1.2 mph 80 % 0.00 in 98.0 W/m2 -RA
16:06 61.9 °F 56.0 °F 29.92 in Calm   1.2 mph 81 % 0.00 in 111.0 W/m2 -RA
16:11 62.1 °F 56.2 °F 29.92 in Calm   1.2 mph 81 % 0.00 in 151.0 W/m2 -RA
16:16 62.2 °F 56.3 °F 29.92 in NNE 0.1 mph 1.2 mph 81 % 0.00 in 132.0 W/m2 -RA
16:21 62.0 °F 56.1 °F 29.92 in Calm   3.5 mph 81 % 0.00 in 144.0 W/m2 -RA
16:26 62.0 °F 56.1 °F 29.92 in Calm   3.5 mph 81 % 0.00 in 169.0 W/m2 -RA
16:31 62.0 °F 56.4 °F 29.91 in Calm   2.3 mph 82 % 0.00 in 179.0 W/m2 -RA
16:36 61.8 °F 56.2 °F 29.91 in North 0.2 mph 3.5 mph 82 % 0.00 in 146.0 W/m2 -RA
16:41 61.7 °F 56.5 °F 29.90 in Calm   3.5 mph 83 % 0.00 in 174.0 W/m2 -RA
16:46 61.7 °F 56.5 °F 29.91 in Calm   2.3 mph 83 % 0.00 in 171.0 W/m2 -RA
16:51 61.8 °F 56.9 °F 29.91 in Calm   2.3 mph 84 % 0.00 in 155.0 W/m2 -RA
16:56 61.6 °F 56.4 °F 29.91 in Calm   2.3 mph 83 % 0.00 in 120.0 W/m2 -RA
17:01 61.3 °F 56.1 °F 29.90 in Calm   2.3 mph 83 % 0.00 in 100.0 W/m2 -RA
17:06 61.2 °F 56.0 °F 29.90 in Calm   1.2 mph 83 % 0.00 in 90.0 W/m2 -RA
17:11 61.3 °F 56.1 °F 29.90 in Calm     83 % 0.00 in 86.0 W/m2 -RA
17:16 61.1 °F 56.2 °F 29.89 in Calm     84 % 0.00 in 83.0 W/m2 -RA
17:21 61.2 °F 56.3 °F 29.89 in Calm     84 % 0.00 in 63.0 W/m2 -RA
17:27 61.2 °F 56.3 °F 29.88 in Calm     84 % 0.00 in 74.0 W/m2 -RA
17:32 61.5 °F 56.9 °F 29.89 in Calm     85 % 0.00 in 121.0 W/m2 -RA
17:37 61.6 °F 57.0 °F 29.89 in Calm     85 % 0.00 in 76.0 W/m2 -RA
17:42 61.6 °F 57.0 °F 29.89 in Calm   1.2 mph 85 % 0.00 in 39.0 W/m2 -RA
17:47 61.4 °F 56.8 °F 29.89 in Calm   1.2 mph 85 % 0.00 in 37.0 W/m2 -RA
17:52 61.1 °F 56.6 °F 29.90 in NNW 0.2 mph 2.3 mph 85 % 0.00 in 33.0 W/m2 -RA
17:57 61.1 °F 56.9 °F 29.89 in Calm   2.3 mph 86 % 0.00 in 63.0 W/m2 -RA
18:02 61.0 °F 56.8 °F 29.89 in Calm   2.3 mph 86 % 0.00 in 69.0 W/m2 -RA
18:07 61.1 °F 57.2 °F 29.89 in Calm     87 % 0.00 in 81.0 W/m2 -RA
18:12 61.1 °F 56.9 °F 29.89 in Calm     86 % 0.00 in 79.0 W/m2 -RA
18:17 61.2 °F 57.0 °F 29.88 in Calm     86 % 0.00 in 83.0 W/m2 -RA
18:22 61.3 °F 57.4 °F 29.88 in Calm     87 % 0.00 in 60.0 W/m2 -RA
18:27 61.1 °F 56.9 °F 29.88 in Calm     86 % 0.00 in 53.0 W/m2 -RA
18:32 61.0 °F 57.1 °F 29.88 in Calm     87 % 0.00 in 54.0 W/m2 -RA
18:38 60.9 °F 57.0 °F 29.88 in Calm     87 % 0.00 in 46.0 W/m2 -RA
18:43 60.9 °F 57.0 °F 29.88 in Calm     87 % 0.00 in 33.0 W/m2 -RA
18:48 60.9 °F 57.0 °F 29.88 in Calm     87 % 0.00 in 21.0 W/m2 -RA
18:53 60.8 °F 56.9 °F 29.87 in Calm     87 % 0.00 in 21.0 W/m2 -RA
18:58 60.8 °F 56.9 °F 29.87 in Calm     87 % 0.00 in 19.0 W/m2 -RA
19:03 60.7 °F 56.8 °F 29.86 in Calm     87 % 0.00 in 18.0 W/m2 OVC
19:08 60.8 °F 56.9 °F 29.87 in Calm     87 % 0.00 in 23.0 W/m2 OVC
19:13 60.8 °F 56.9 °F 29.87 in Calm     87 % 0.00 in 25.0 W/m2 OVC
19:18 60.8 °F 57.2 °F 29.87 in Calm     88 % 0.00 in 25.0 W/m2 OVC
19:23 60.8 °F 57.2 °F 29.86 in Calm     88 % 0.00 in 18.0 W/m2 OVC
19:28 60.7 °F 57.1 °F 29.86 in Calm     88 % 0.00 in 16.0 W/m2 OVC
19:33 60.7 °F 57.1 °F 29.86 in Calm     88 % 0.00 in 14.0 W/m2 OVC
19:38 60.7 °F 57.1 °F 29.86 in Calm     88 % 0.00 in 14.0 W/m2 OVC
19:43 60.7 °F 57.1 °F 29.86 in Calm     88 % 0.00 in 12.0 W/m2 OVC
19:48 60.6 °F 57.0 °F 29.86 in Calm     88 % 0.00 in 18.0 W/m2 OVC
19:53 60.6 °F 57.0 °F 29.86 in Calm     88 % 0.00 in 18.0 W/m2 OVC
19:58 60.7 °F 57.1 °F 29.85 in Calm     88 % 0.00 in 12.0 W/m2 OVC
20:03 60.6 °F 56.7 °F 29.86 in Calm     87 % 0.00 in 9.0 W/m2 OVC
20:08 60.7 °F 56.8 °F 29.85 in Calm     87 % 0.00 in 7.0 W/m2 OVC
20:13 60.8 °F 56.9 °F 29.86 in Calm     87 % 0.00 in 0.0 W/m2 OVC
20:18 60.7 °F 56.8 °F 29.86 in Calm     87 % 0.00 in 0.0 W/m2 OVC
20:23 60.7 °F 56.8 °F 29.86 in Calm     87 % 0.00 in 0.0 W/m2 OVC
20:28 60.6 °F 57.0 °F 29.85 in Calm     88 % 0.00 in 0.0 W/m2 OVC
20:33 60.6 °F 57.0 °F 29.85 in Calm     88 % 0.00 in 0.0 W/m2 OVC
20:38 60.6 °F 57.0 °F 29.85 in Calm     88 % 0.00 in 0.0 W/m2 OVC
20:43 60.4 °F 56.8 °F 29.85 in Calm     88 % 0.00 in 0.0 W/m2 OVC
20:48 60.3 °F 56.7 °F 29.84 in Calm     88 % 0.00 in 0.0 W/m2 OVC
20:54 60.3 °F 56.7 °F 29.85 in Calm     88 % 0.00 in 0.0 W/m2 OVC
20:55 60.3 °F 56.7 °F 29.85 in Calm     88 % 0.00 in 0.0 W/m2 OVC
21:00 60.3 °F 56.7 °F 29.85 in Calm     88 % 0.00 in 0.0 W/m2 OVC
21:10 60.4 °F 57.1 °F 29.84 in Calm     89 % 0.00 in 0.0 W/m2 OVC
21:15 60.3 °F 57.0 °F 29.84 in Calm     89 % 0.00 in 0.0 W/m2 OVC
21:20 60.3 °F 57.0 °F 29.85 in Calm     89 % 0.00 in 0.0 W/m2 OVC
21:25 60.3 °F 57.0 °F 29.85 in Calm     89 % 0.00 in 0.0 W/m2 OVC
21:30 60.3 °F 57.0 °F 29.84 in Calm     89 % 0.00 in 0.0 W/m2 OVC
21:35 60.3 °F 57.0 °F 29.84 in Calm     89 % 0.00 in 0.0 W/m2 OVC
21:40 60.3 °F 57.0 °F 29.84 in Calm     89 % 0.00 in 0.0 W/m2 OVC
21:45 60.3 °F 57.0 °F 29.84 in Calm     89 % 0.00 in 0.0 W/m2 OVC
21:50 60.3 °F 57.0 °F 29.84 in Calm     89 % 0.00 in 0.0 W/m2 OVC
21:55 60.3 °F 57.0 °F 29.84 in Calm     89 % 0.00 in 0.0 W/m2 OVC
22:00 60.2 °F 56.9 °F 29.84 in Calm     89 % 0.00 in 0.0 W/m2 OVC
22:05 60.2 °F 57.3 °F 29.84 in Calm     90 % 0.00 in 0.0 W/m2 OVC
22:10 60.2 °F 57.3 °F 29.84 in Calm     90 % 0.00 in 0.0 W/m2 OVC
22:15 60.1 °F 57.2 °F 29.84 in Calm     90 % 0.00 in 0.0 W/m2 OVC
22:20 60.1 °F 57.2 °F 29.84 in Calm     90 % 0.00 in 0.0 W/m2 OVC
22:25 60.1 °F 57.2 °F 29.85 in Calm   1.2 mph 90 % 0.00 in 0.0 W/m2 OVC
22:30 60.0 °F 57.1 °F 29.86 in NNW 0.5 mph 1.2 mph 90 % 0.00 in 0.0 W/m2 OVC
22:35 60.1 °F 57.2 °F 29.86 in North 2.4 mph 4.6 mph 90 % 0.00 in 0.0 W/m2 OVC
22:40 60.2 °F 57.3 °F 29.85 in Calm   10.4 mph 90 % 0.00 in 0.0 W/m2 OVC
22:45 60.3 °F 57.4 °F 29.85 in Calm   10.4 mph 90 % 0.00 in 0.0 W/m2 OVC
22:50 60.3 °F 57.4 °F 29.86 in NW 1.1 mph 4.6 mph 90 % 0.01 in 0.0 W/m2 RA
22:55 60.1 °F 57.2 °F 29.85 in Calm   3.5 mph 90 % 0.01 in 0.0 W/m2 RA
23:00 60.2 °F 57.6 °F 29.85 in Calm   3.5 mph 91 % 0.01 in 0.0 W/m2 OVC
23:05 60.0 °F 57.4 °F 29.84 in Calm   1.2 mph 91 % 0.01 in 0.0 W/m2 +RA
23:10 60.0 °F 57.4 °F 29.84 in Calm     91 % 0.01 in 0.0 W/m2 +RA
23:15 59.9 °F 57.3 °F 29.84 in Calm     91 % 0.01 in 0.0 W/m2 +RA
23:20 59.9 °F 57.3 °F 29.83 in Calm     91 % 0.01 in 0.0 W/m2 +RA
23:25 59.9 °F 57.3 °F 29.83 in Calm     91 % 0.01 in 0.0 W/m2 +RA
23:30 60.0 °F 57.4 °F 29.83 in Calm     91 % 0.01 in 0.0 W/m2 +RA
23:35 60.0 °F 57.4 °F 29.83 in Calm     91 % 0.01 in 0.0 W/m2 +RA
23:40 59.9 °F 57.3 °F 29.83 in Calm     91 % 0.01 in 0.0 W/m2 +RA
23:45 59.9 °F 57.3 °F 29.83 in Calm     91 % 0.01 in 0.0 W/m2 +RA
23:50 59.8 °F 57.2 °F 29.83 in Calm     91 % 0.00 in 0.0 W/m2 +RA
23:55 59.8 °F 57.5 °F 29.83 in Calm     92 % 0.00 in 0.0 W/m2 +RA
Air Products Campus Weather
Compliments of Weather Underground - 3.5 mb